Time;durP1;ratioP1;P1;durP2;ratioP2;P2;SDS_P1;SDS_P2;PMS_P1;PMS_P2;Temp;Humidity;BMP_temperature;BMP_pressure;BME280_temperature;BME280_humidity;BME280_pressure;Samples;Min_cycle;Max_cycle;Signal;HPM_P1;HPM_P2
2021/09/25 04:01:51;;;;;;;2.53;2.20;;;;;;;;;;5296502;23;20633;-75
2021/09/25 04:04:17;;;;;;;3.53;2.10;;;13.70;96.30;;;;;;4964401;28;20505;-76
2021/09/25 04:06:42;;;;;;;4.90;1.90;;;13.70;96.30;;;;;;4970585;28;20210;-75
2021/09/25 04:09:08;;;;;;;2.40;1.80;;;13.80;96.30;;;;;;4955956;29;20627;-79
2021/09/25 04:11:35;;;;;;;5.83;2.33;;;13.70;96.30;;;;;;4955335;28;20187;-75
2021/09/25 04:14:01;;;;;;;2.87;2.47;;;;;;;;;;4970843;28;20179;-76
2021/09/25 04:16:27;;;;;;;3.47;2.30;;;13.60;96.30;;;;;;4961993;28;20465;-78
2021/09/25 04:18:53;;;;;;;2.93;2.00;;;13.60;96.30;;;;;;4965550;28;20226;-78
2021/09/25 04:21:19;;;;;;;2.17;1.97;;;13.50;96.30;;;;;;4982512;23;20891;-76
2021/09/25 04:23:44;;;;;;;2.43;2.20;;;13.50;96.30;;;;;;4955555;28;20317;-77
2021/09/25 04:26:10;;;;;;;5.20;2.20;;;13.40;96.30;;;;;;4954089;29;20770;-75
2021/09/25 04:28:35;;;;;;;4.70;2.10;;;13.30;96.30;;;;;;4955310;28;20171;-75
2021/09/25 04:31:01;;;;;;;5.60;2.27;;;13.20;96.30;;;;;;4953364;28;20206;-76
2021/09/25 04:33:26;;;;;;;4.00;2.23;;;13.00;96.30;;;;;;4955032;28;20175;-75
2021/09/25 04:35:52;;;;;;;9.23;2.33;;;12.90;96.30;;;;;;4955365;29;20265;-79
2021/09/25 04:38:17;;;;;;;4.53;2.30;;;12.80;96.30;;;;;;4957616;28;20533;-77
2021/09/25 04:40:43;;;;;;;7.17;2.43;;;12.80;96.30;;;;;;4955174;28;20297;-78
2021/09/25 04:43:08;;;;;;;3.03;2.10;;;12.70;96.30;;;;;;4954703;28;20178;-75
2021/09/25 04:45:34;;;;;;;4.17;2.30;;;12.70;96.30;;;;;;4953885;28;20179;-75
2021/09/25 04:47:59;;;;;;;5.00;2.60;;;12.80;96.30;;;;;;4953597;29;20609;-75
2021/09/25 04:50:29;;;;;;;3.23;2.30;;;12.80;96.30;;;;;;4954978;28;20177;-75
2021/09/25 04:53:04;;;;;;;4.53;2.63;;;12.70;96.30;;;;;;4954420;28;20175;-76
2021/09/25 04:55:30;;;;;;;2.47;2.10;;;12.70;96.30;;;;;;4955207;28;20403;-77
2021/09/25 04:57:55;;;;;;;3.93;2.10;;;12.80;96.30;;;;;;4956086;28;20422;-78
2021/09/25 05:00:21;;;;;;;3.70;2.23;;;12.80;96.30;;;;;;4954874;28;20487;-75
2021/09/25 05:02:47;;;;;;;9.50;2.23;;;12.90;96.30;;;;;;4954265;29;20694;-76
2021/09/25 05:05:12;;;;;;;5.20;2.60;;;13.00;96.30;;;;;;4954942;29;20586;-75
2021/09/25 05:07:38;;;;;;;1.80;1.67;;;13.10;96.30;;;;;;4955788;28;20442;-77
2021/09/25 05:10:04;;;;;;;2.67;2.30;;;13.10;96.30;;;;;;4955606;28;20179;-75
2021/09/25 05:12:29;;;;;;;4.80;2.10;;;13.20;96.30;;;;;;4953727;28;20206;-75
2021/09/25 05:14:55;;;;;;;4.60;2.63;;;13.30;96.30;;;;;;4955967;28;20643;-75
2021/09/25 05:17:20;;;;;;;6.47;2.10;;;13.30;96.30;;;;;;4955811;28;20179;-76
2021/09/25 05:19:47;;;;;;;3.27;2.03;;;13.40;96.30;;;;;;4955677;28;20524;-78
2021/09/25 05:22:13;;;;;;;3.70;2.20;;;13.50;96.30;;;;;;4955031;28;20202;-75
2021/09/25 05:24:39;;;;;;;2.90;2.33;;;13.50;96.30;;;;;;4956454;28;20445;-76
2021/09/25 05:27:05;;;;;;;5.23;2.33;;;13.50;96.30;;;;;;4955942;28;20566;-78
2021/09/25 05:29:30;;;;;;;3.63;2.43;;;13.60;96.30;;;;;;4955778;28;20179;-78
2021/09/25 05:32:01;;;;;;;2.90;2.30;;;13.60;96.30;;;;;;4954106;28;20574;-75
2021/09/25 05:34:27;;;;;;;2.40;2.10;;;13.70;96.30;;;;;;4954505;29;20195;-78
2021/09/25 05:36:54;;;;;;;5.33;2.53;;;;;;;;;;4955947;28;20421;-78
2021/09/25 05:39:20;;;;;;;2.80;1.93;;;13.80;96.30;;;;;;4955822;28;20175;-75
2021/09/25 05:41:45;;;;;;;4.13;2.30;;;13.80;96.30;;;;;;4955064;28;20442;-76
2021/09/25 05:44:11;;;;;;;4.30;2.10;;;13.80;96.30;;;;;;4955584;28;20221;-78
2021/09/25 05:46:36;;;;;;;3.30;2.37;;;13.80;96.30;;;;;;4955412;28;20210;-75
2021/09/25 05:49:02;;;;;;;3.23;2.20;;;13.90;96.30;;;;;;4955855;28;20193;-76
2021/09/25 05:51:28;;;;;;;2.87;2.30;;;13.90;96.30;;;;;;4955201;28;20693;-76
2021/09/25 05:53:53;;;;;;;5.33;2.60;;;13.90;96.30;;;;;;4960474;28;20414;-76
2021/09/25 05:56:19;;;;;;;4.30;2.63;;;14.00;96.30;;;;;;4961982;28;20234;-76
2021/09/25 05:58:44;;;;;;;13.10;2.20;;;14.00;96.30;;;;;;4962090;28;20203;-75
2021/09/25 06:01:10;;;;;;;5.33;2.43;;;14.00;96.30;;;;;;4960840;28;20209;-76
2021/09/25 06:03:35;;;;;;;5.00;2.53;;;14.00;96.30;;;;;;4961075;28;20253;-77
2021/09/25 06:06:01;;;;;;;3.77;2.73;;;14.00;96.30;;;;;;4960466;28;20185;-75
2021/09/25 06:08:27;;;;;;;6.10;2.70;;;;;;;;;;4959615;28;20198;-75
2021/09/25 06:10:52;;;;;;;7.80;2.03;;;14.20;96.30;;;;;;4960066;28;20674;-76
2021/09/25 06:13:18;;;;;;;3.47;2.63;;;14.20;96.30;;;;;;4959768;28;20500;-76
2021/09/25 06:15:44;;;;;;;3.10;1.97;;;14.20;96.30;;;;;;4960346;28;20226;-75
2021/09/25 06:18:10;;;;;;;3.10;2.40;;;14.20;96.30;;;;;;4959105;29;20233;-76
2021/09/25 06:20:36;;;;;;;3.97;2.50;;;14.20;96.30;;;;;;4960181;28;20449;-78
2021/09/25 06:23:03;;;;;;;3.20;2.17;;;14.20;96.30;;;;;;4958399;28;20402;-75
2021/09/25 06:25:29;;;;;;;3.17;2.20;;;14.30;96.30;;;;;;4960637;28;20178;-75
2021/09/25 06:27:54;;;;;;;3.93;2.00;;;14.30;96.30;;;;;;4961016;28;20511;-77
2021/09/25 06:30:20;;;;;;;5.87;2.17;;;14.30;96.30;;;;;;4959484;28;20182;-78
2021/09/25 06:32:46;;;;;;;7.83;1.83;;;14.40;96.30;;;;;;4960109;28;20171;-76
2021/09/25 06:35:12;;;;;;;2.60;1.87;;;14.40;96.30;;;;;;4960620;28;20171;-76
2021/09/25 06:37:38;;;;;;;1.50;1.40;;;14.50;96.30;;;;;;4960230;28;20410;-76
2021/09/25 06:40:05;;;;;;;3.90;1.93;;;14.50;96.30;;;;;;4960262;28;20465;-75
2021/09/25 06:42:31;;;;;;;3.13;2.10;;;14.60;96.30;;;;;;4959509;28;20679;-76
2021/09/25 06:44:57;;;;;;;2.47;1.87;;;;;;;;;;4959089;28;20469;-75
2021/09/25 06:47:22;;;;;;;3.57;1.90;;;14.70;96.30;;;;;;4958824;29;20306;-76
2021/09/25 06:49:48;;;;;;;4.53;1.70;;;14.60;96.30;;;;;;4960043;28;20175;-75
2021/09/25 06:52:14;;;;;;;3.87;2.20;;;14.70;96.30;;;;;;4958251;28;20569;-76
2021/09/25 06:54:39;;;;;;;2.40;1.73;;;14.70;96.30;;;;;;4960505;28;20175;-76
2021/09/25 06:57:06;;;;;;;2.93;1.70;;;14.80;96.30;;;;;;4960744;28;20193;-75
2021/09/25 06:59:32;;;;;;;3.77;1.70;;;14.80;96.30;;;;;;4959854;28;20214;-76
2021/09/25 07:01:58;;;;;;;2.30;1.87;;;14.90;96.30;;;;;;4958552;28;20458;-77
2021/09/25 07:04:23;;;;;;;6.43;1.83;;;15.00;96.30;;;;;;4957793;28;20418;-76
2021/09/25 07:06:48;;;;;;;3.43;2.30;;;15.00;96.30;;;;;;4955661;29;20203;-76
2021/09/25 07:09:14;;;;;;;3.20;2.13;;;15.10;96.30;;;;;;4956391;28;20214;-76
2021/09/25 07:11:40;;;;;;;4.90;1.90;;;15.10;96.30;;;;;;4946540;29;20562;-79
2021/09/25 07:14:05;;;;;;;2.97;2.10;;;15.10;96.30;;;;;;4957121;28;20167;-76
2021/09/25 07:16:31;;;;;;;2.90;1.70;;;15.10;96.30;;;;;;4956560;28;20664;-77
2021/09/25 07:18:57;;;;;;;4.77;3.20;;;15.10;96.30;;;;;;4954947;28;20182;-77
2021/09/25 07:21:22;;;;;;;2.80;2.60;;;15.20;96.30;;;;;;4954767;28;20226;-77
2021/09/25 07:23:48;;;;;;;2.90;2.30;;;15.20;96.30;;;;;;4956490;28;20371;-76
2021/09/25 07:26:14;;;;;;;5.53;2.13;;;15.20;96.30;;;;;;4955508;28;20779;-75
2021/09/25 07:28:40;;;;;;;2.17;1.90;;;15.30;96.30;;;;;;4956634;28;20537;-75
2021/09/25 07:31:07;;;;;;;2.27;1.90;;;15.30;96.30;;;;;;4954764;28;20612;-76
2021/09/25 07:33:32;;;;;;;2.27;1.70;;;15.30;96.30;;;;;;4956465;28;20167;-78
2021/09/25 07:36:00;;;;;;;2.93;1.93;;;15.40;96.30;;;;;;4955357;28;20446;-76
2021/09/25 07:38:25;;;;;;;3.20;1.70;;;15.50;96.30;;;;;;4956812;28;20194;-76
2021/09/25 07:40:52;;;;;;;3.10;2.13;;;15.70;96.30;;;;;;4955337;28;20427;-76
2021/09/25 07:43:18;;;;;;;2.87;2.27;;;15.80;96.30;;;;;;4955889;28;20698;-76
2021/09/25 07:45:44;;;;;;;5.23;1.80;;;15.90;96.30;;;;;;4954988;28;20950;-78
2021/09/25 07:48:10;;;;;;;5.40;2.17;;;16.10;96.30;;;;;;4956191;28;20489;-78
2021/09/25 07:50:35;;;;;;;2.73;1.70;;;16.30;96.30;;;;;;4956164;28;20203;-78
2021/09/25 07:53:00;;;;;;;7.13;3.03;;;16.50;96.30;;;;;;4955581;28;20592;-78
2021/09/25 07:55:26;;;;;;;4.20;2.37;;;16.70;96.30;;;;;;4956156;28;20181;-78
2021/09/25 07:57:52;;;;;;;4.37;1.80;;;16.80;96.30;;;;;;4955951;28;20265;-78
2021/09/25 08:00:18;;;;;;;3.60;1.90;;;16.90;96.30;;;;;;4955683;28;20202;-78
2021/09/25 08:02:44;;;;;;;2.57;2.07;;;17.10;96.30;;;;;;4954634;28;20187;-78
2021/09/25 08:05:11;;;;;;;3.33;2.03;;;17.20;96.30;;;;;;4947633;29;20178;-79
2021/09/25 08:07:38;;;;;;;4.77;2.47;;;17.30;96.30;;;;;;4941190;28;20517;-78
2021/09/25 08:10:06;;;;;;;7.93;2.20;;;17.60;96.30;;;;;;4955543;28;20418;-78
2021/09/25 08:12:32;;;;;;;2.70;2.00;;;18.00;96.30;;;;;;4954977;28;20861;-78
2021/09/25 08:14:58;;;;;;;2.43;1.90;;;18.40;96.30;;;;;;4955726;28;20465;-77
2021/09/25 08:17:24;;;;;;;2.90;1.87;;;18.70;96.30;;;;;;4954422;28;20175;-78
2021/09/25 08:19:50;;;;;;;2.80;1.80;;;18.90;96.30;;;;;;4954618;28;20934;-79
2021/09/25 08:22:15;;;;;;;3.50;2.23;;;18.80;96.30;;;;;;4954363;28;20462;-75
2021/09/25 08:24:42;;;;;;;3.10;1.83;;;18.30;96.30;;;;;;4955776;28;20187;-75
2021/09/25 08:27:08;;;;;;;2.17;1.97;;;18.50;96.30;;;;;;4955332;28;20197;-79
2021/09/25 08:29:34;;;;;;;2.93;2.00;;;18.90;96.30;;;;;;4954961;28;20798;-75
2021/09/25 08:31:59;;;;;;;6.07;2.00;;;19.60;96.30;;;;;;4954645;28;20193;-76
2021/09/25 08:34:25;;;;;;;3.77;2.40;;;19.60;96.30;;;;;;4955096;28;20183;-76
2021/09/25 08:36:50;;;;;;;4.50;2.27;;;20.80;96.30;;;;;;4955187;28;20178;-78
2021/09/25 08:39:17;;;;;;;4.77;2.20;;;22.00;96.30;;;;;;4955155;28;20218;-76
2021/09/25 08:41:43;;;;;;;2.20;2.00;;;22.50;95.60;;;;;;4954236;28;20199;-79
2021/09/25 08:44:10;;;;;;;2.83;1.80;;;23.20;95.40;;;;;;4954964;28;20415;-78
2021/09/25 08:46:35;;;;;;;4.20;2.20;;;24.30;88.60;;;;;;4954895;28;20500;-76
2021/09/25 08:49:02;;;;;;;2.80;2.20;;;24.60;89.80;;;;;;4953652;28;20445;-76
2021/09/25 08:51:27;;;;;;;3.73;1.97;;;24.20;89.10;;;;;;4954148;28;20294;-76
2021/09/25 08:53:53;;;;;;;2.40;2.17;;;23.80;89.20;;;;;;4955042;28;20426;-76
2021/09/25 08:56:18;;;;;;;3.60;1.90;;;24.50;88.50;;;;;;4954805;28;20639;-76
2021/09/25 08:58:45;;;;;;;3.90;2.20;;;24.40;88.80;;;;;;4954766;28;20225;-76
2021/09/25 09:01:21;;;;;;;3.80;2.50;;;24.70;85.40;;;;;;4953981;28;20640;-76
2021/09/25 09:03:48;;;;;;;2.83;2.50;;;25.40;86.10;;;;;;4954811;28;20745;-75
2021/09/25 09:06:23;;;;;;;5.30;2.17;;;25.90;82.70;;;;;;4954499;28;20428;-76
2021/09/25 09:08:51;;;;;;;3.53;2.37;;;26.20;84.50;;;;;;4957832;28;20953;-78
2021/09/25 09:11:18;;;;;;;2.83;2.50;;;26.10;83.90;;;;;;4953781;28;20505;-79
2021/09/25 09:13:46;;;;;;;3.33;2.37;;;26.10;83.90;;;;;;4954693;28;20497;-79
2021/09/25 09:16:13;;;;;;;3.63;2.03;;;26.50;84.60;;;;;;4954519;28;20402;-79
2021/09/25 09:18:41;;;;;;;2.87;2.17;;;26.20;82.20;;;;;;4954589;28;20418;-78
2021/09/25 09:21:14;;;;;;;2.60;2.17;;;26.30;82.00;;;;;;4953408;28;20448;-79
2021/09/25 09:23:48;;;;;;;3.63;2.00;;;26.00;84.70;;;;;;4954401;28;20741;-78
2021/09/25 09:26:16;;;;;;;2.93;2.37;;;25.70;85.50;;;;;;4950179;28;20411;-78
2021/09/25 09:28:44;;;;;;;2.37;2.17;;;25.70;82.40;;;;;;4934501;29;20415;-78
2021/09/25 09:31:11;;;;;;;3.63;2.50;;;25.30;84.40;;;;;;4934625;29;20438;-78
2021/09/25 09:33:41;;;;;;;2.83;2.20;;;26.00;84.70;;;;;;4934993;29;20955;-78
2021/09/25 09:36:23;;;;;;;6.30;2.47;;;26.10;84.40;;;;;;4935125;29;20501;-78
2021/09/25 09:39:15;;;;;;;3.83;2.53;;;26.20;83.50;;;;;;4933646;29;20846;-78
2021/09/25 09:41:44;;;;;;;3.10;2.10;;;26.10;83.10;;;;;;4934405;29;21002;-78
2021/09/25 09:44:16;;;;;;;2.90;2.40;;;26.10;86.00;;;;;;4934924;29;20407;-78
2021/09/25 09:46:50;;;;;;;6.10;2.10;;;25.70;83.80;;;;;;4933639;29;20455;-78
2021/09/25 09:49:23;;;;;;;5.20;1.93;;;25.90;85.00;;;;;;4935071;29;20922;-78
2021/09/25 09:51:54;;;;;;;3.30;2.20;;;26.10;81.40;;;;;;4934274;29;20435;-78
2021/09/25 09:54:26;;;;;;;3.20;2.00;;;26.70;83.00;;;;;;4934579;29;20871;-79
2021/09/25 09:56:54;;;;;;;2.20;2.00;;;25.40;80.20;;;;;;4934836;29;20486;-79
2021/09/25 09:59:20;;;;;;;4.37;2.30;;;25.00;85.40;;;;;;4934839;29;20426;-78
2021/09/25 10:01:45;;;;;;;2.83;2.07;;;24.50;83.20;;;;;;4934013;29;20435;-78
2021/09/25 10:04:12;;;;;;;4.73;1.97;;;24.60;85.30;;;;;;4934736;29;20187;-78
2021/09/25 10:06:37;;;;;;;4.23;2.10;;;25.10;87.10;;;;;;4934734;29;20199;-78
2021/09/25 10:09:09;;;;;;;5.37;2.07;;;25.40;86.50;;;;;;4934636;29;20427;-78
2021/09/25 10:11:37;;;;;;;2.60;2.03;;;25.70;86.00;;;;;;4933886;29;20198;-78
2021/09/25 10:14:04;;;;;;;1.70;1.47;;;25.40;84.10;;;;;;4933419;29;20424;-79
2021/09/25 10:16:30;;;;;;;3.00;1.87;;;25.10;86.10;;;;;;4934724;29;20415;-78
2021/09/25 10:18:56;;;;;;;4.00;1.77;;;;;;;;;;4934668;29;20422;-79
2021/09/25 10:21:22;;;;;;;3.20;1.70;;;25.00;82.60;;;;;;4935163;29;20458;-78
2021/09/25 10:23:57;;;;;;;1.97;1.60;;;24.90;85.80;;;;;;4935897;29;20184;-79
2021/09/25 10:26:23;;;;;;;2.37;1.87;;;24.30;89.70;;;;;;4945541;29;20453;-80
2021/09/25 10:28:54;;;;;;;1.77;1.57;;;24.30;87.50;;;;;;4942349;28;20419;-78
2021/09/25 10:31:20;;;;;;;2.60;1.83;;;24.60;89.00;;;;;;4933761;29;20467;-79
2021/09/25 10:34:11;;;;;;;3.00;2.00;;;24.70;86.60;;;;;;4934715;29;20458;-78
2021/09/25 10:36:42;;;;;;;3.00;1.80;;;24.10;89.00;;;;;;4950604;29;20199;-80
2021/09/25 10:39:24;;;;;;;1.77;1.63;;;24.10;89.10;;;;;;4956239;28;20406;-79
2021/09/25 10:41:58;;;;;;;3.97;2.33;;;24.50;91.90;;;;;;4957558;28;20926;-79
2021/09/25 10:44:30;;;;;;;2.27;1.70;;;25.00;86.40;;;;;;4958973;28;20414;-79
2021/09/25 10:47:07;;;;;;;2.80;1.93;;;24.60;87.40;;;;;;4957698;28;20534;-79
2021/09/25 10:49:45;;;;;;;3.70;1.90;;;23.30;92.00;;;;;;4958323;28;20921;-78
2021/09/25 10:52:12;;;;;;;3.30;1.83;;;23.70;88.20;;;;;;4956946;28;20426;-79
2021/09/25 10:54:37;;;;;;;2.10;1.53;;;23.80;89.90;;;;;;4956782;29;20790;-79
2021/09/25 10:57:08;;;;;;;4.40;1.90;;;23.80;89.90;;;;;;4957567;28;21181;-80
2021/09/25 10:59:33;;;;;;;3.10;1.30;;;23.60;90.20;;;;;;4957924;28;20183;-79
2021/09/25 11:01:59;;;;;;;1.90;1.60;;;23.60;93.10;;;;;;4957495;28;20445;-79
2021/09/25 11:04:24;;;;;;;2.90;1.87;;;23.90;90.70;;;;;;4956929;28;20262;-79
2021/09/25 11:06:57;;;;;;;2.60;1.70;;;24.30;89.30;;;;;;4957452;28;20206;-79
2021/09/25 11:09:26;;;;;;;4.00;1.87;;;24.40;93.40;;;;;;4957052;28;20181;-78
2021/09/25 11:12:07;;;;;;;2.77;1.80;;;24.80;90.20;;;;;;4956161;28;20449;-78
2021/09/25 11:14:41;;;;;;;3.47;2.00;;;24.80;89.60;;;;;;4955890;29;20418;-78
2021/09/25 11:17:14;;;;;;;4.40;1.93;;;24.00;88.80;;;;;;4956719;28;20500;-78
2021/09/25 11:19:56;;;;;;;4.40;1.77;;;24.50;91.90;;;;;;4956141;28;20426;-79
2021/09/25 11:22:47;;;;;;;2.70;1.37;;;24.10;88.20;;;;;;4956088;28;20465;-78
2021/09/25 11:25:17;;;;;;;4.67;1.90;;;23.20;92.60;;;;;;4956540;28;20798;-78
2021/09/25 11:27:46;;;;;;;3.37;1.93;;;23.30;94.60;;;;;;4956466;28;21085;-78
2021/09/25 11:30:23;;;;;;;5.33;1.67;;;23.90;92.30;;;;;;4955028;28;20438;-78
2021/09/25 11:32:49;;;;;;;3.90;2.00;;;23.80;89.30;;;;;;4954720;28;20440;-77
2021/09/25 11:35:35;;;;;;;10.00;1.33;;;23.30;93.10;;;;;;4955456;29;20763;-78
2021/09/25 11:38:10;;;;;;;7.13;2.00;;;23.90;91.70;;;;;;4956206;28;20171;-79
2021/09/25 11:40:42;;;;;;;3.53;2.00;;;24.30;91.00;;;;;;4954070;28;20442;-78
2021/09/25 11:43:13;;;;;;;1.50;1.40;;;24.70;90.20;;;;;;4955426;28;20903;-78
2021/09/25 11:45:42;;;;;;;3.50;1.60;;;24.00;89.50;;;;;;4955954;28;20406;-79
2021/09/25 11:48:10;;;;;;;2.57;1.63;;;23.10;90.60;;;;;;4949864;28;21002;-78
2021/09/25 11:50:38;;;;;;;2.30;2.10;;;22.50;93.20;;;;;;4940952;28;20439;-77
2021/09/25 11:53:07;;;;;;;1.50;1.40;;;22.20;94.90;;;;;;4954656;28;20421;-76
2021/09/25 11:55:34;;;;;;;2.53;1.30;;;23.10;96.30;;;;;;4955553;28;20463;-77
2021/09/25 11:58:05;;;;;;;2.37;1.37;;;23.60;95.70;;;;;;4955656;28;20426;-77
2021/09/25 12:00:42;;;;;;;3.90;1.70;;;24.00;94.40;;;;;;4955806;28;20891;-77
2021/09/25 12:03:09;;;;;;;4.40;1.93;;;24.40;89.20;;;;;;4955219;28;20473;-77
2021/09/25 12:05:43;;;;;;;1.97;1.77;;;24.80;93.00;;;;;;4952062;28;20522;-77
2021/09/25 12:08:11;;;;;;;1.73;1.20;;;24.40;88.70;;;;;;4955526;28;20454;-77
2021/09/25 12:10:42;;;;;;;2.03;1.57;;;24.50;92.70;;;;;;4955395;28;20439;-77
2021/09/25 12:13:23;;;;;;;5.33;1.40;;;24.80;89.90;;;;;;4955078;28;20446;-77
2021/09/25 12:15:51;;;;;;;1.83;1.50;;;24.60;88.00;;;;;;4955504;28;20894;-77
2021/09/25 12:18:17;;;;;;;2.13;1.37;;;24.50;89.60;;;;;;4954971;28;20419;-77
2021/09/25 12:21:07;;;;;;;10.03;1.77;;;24.80;87.80;;;;;;4954654;28;20448;-77
2021/09/25 12:23:41;;;;;;;4.43;1.50;;;24.60;85.30;;;;;;4956928;29;20433;-78
2021/09/25 12:26:24;;;;;;;2.80;1.40;;;23.20;90.50;;;;;;4952068;29;20431;-80
2021/09/25 12:29:01;;;;;;;1.60;1.40;;;23.40;91.30;;;;;;4958698;29;20422;-80
2021/09/25 12:31:33;;;;;;;1.60;1.30;;;24.10;92.30;;;;;;4957974;28;20805;-79
2021/09/25 12:34:04;;;;;;;1.93;1.70;;;24.40;88.80;;;;;;4958629;28;20418;-82
2021/09/25 12:36:34;;;;;;;2.90;1.50;;;24.40;87.00;;;;;;4957097;28;20438;-81
2021/09/25 12:39:12;;;;;;;2.20;1.40;;;24.50;92.30;;;;;;4955977;28;20449;-80
2021/09/25 12:41:43;;;;;;;3.13;1.67;;;25.00;88.30;;;;;;4937919;29;20482;-81
2021/09/25 12:44:09;;;;;;;3.23;1.23;;;25.80;86.00;;;;;;4938409;29;20427;-80
2021/09/25 12:46:40;;;;;;;1.97;1.77;;;25.40;86.20;;;;;;4949733;29;20464;-81
2021/09/25 12:49:13;;;;;;;4.50;1.43;;;25.60;86.60;;;;;;4956573;28;20411;-81
2021/09/25 12:51:48;;;;;;;2.00;1.80;;;25.60;88.10;;;;;;4955686;28;20926;-80
2021/09/25 12:54:17;;;;;;;2.50;1.63;;;25.90;85.10;;;;;;4951882;29;20802;-80
2021/09/25 12:56:53;;;;;;;3.37;1.50;;;25.40;83.60;;;;;;4956404;28;20533;-81
2021/09/25 12:59:24;;;;;;;1.30;1.20;;;24.90;85.20;;;;;;4957764;28;20421;-81
2021/09/25 13:01:52;;;;;;;1.70;1.60;;;25.10;91.00;;;;;;4956225;28;20521;-81
2021/09/25 13:04:27;;;;;;;4.33;1.40;;;25.40;85.40;;;;;;4960426;28;20428;-81
2021/09/25 13:06:54;;;;;;;4.90;1.47;;;25.70;87.10;;;;;;4969899;28;20472;-81
2021/09/25 13:09:21;;;;;;;25.93;8.03;;;25.50;85.50;;;;;;4965626;28;20442;-80
2021/09/25 13:12:09;;;;;;;2.27;1.40;;;24.70;85.90;;;;;;4958390;28;20788;-80
2021/09/25 13:14:36;;;;;;;2.00;1.50;;;24.40;95.30;;;;;;4960314;28;20417;-80
2021/09/25 13:17:01;;;;;;;1.70;1.60;;;24.80;89.90;;;;;;4960370;28;20417;-80
2021/09/25 13:19:27;;;;;;;2.03;1.83;;;24.60;85.60;;;;;;4968117;28;20411;-80
2021/09/25 13:21:53;;;;;;;2.97;1.97;;;24.50;87.50;;;;;;4967770;28;20222;-80
2021/09/25 13:24:19;;;;;;;6.77;2.30;;;25.20;88.70;;;;;;4969097;28;20196;-80
2021/09/25 13:26:46;;;;;;;4.67;1.70;;;25.20;84.80;;;;;;4951472;28;20243;-79
2021/09/25 13:29:12;;;;;;;4.07;1.80;;;25.10;86.60;;;;;;4940164;29;20831;-79
2021/09/25 13:31:37;;;;;;;2.80;1.40;;;25.20;86.40;;;;;;4939995;29;20482;-80
2021/09/25 13:34:03;;;;;;;1.93;1.53;;;24.80;84.10;;;;;;4940382;29;20416;-80
2021/09/25 13:36:29;;;;;;;2.00;1.77;;;24.20;91.30;;;;;;4940463;29;20190;-80
2021/09/25 13:38:54;;;;;;;1.57;1.47;;;24.10;91.10;;;;;;4940280;29;20411;-80
2021/09/25 13:41:23;;;;;;;3.57;1.50;;;23.80;91.90;;;;;;4939167;29;20207;-79
2021/09/25 13:43:48;;;;;;;4.67;1.53;;;23.50;91.70;;;;;;4940369;29;20251;-80
2021/09/25 13:46:14;;;;;;;2.10;1.90;;;23.30;92.50;;;;;;4939521;29;20451;-80
2021/09/25 13:48:39;;;;;;;5.43;1.90;;;23.10;92.80;;;;;;4939576;29;20193;-79
2021/09/25 13:51:05;;;;;;;4.20;1.80;;;23.40;94.50;;;;;;4937584;29;20599;-80
2021/09/25 13:53:30;;;;;;;3.13;1.37;;;23.70;93.10;;;;;;4940120;29;20187;-79
2021/09/25 13:55:56;;;;;;;2.70;1.83;;;23.60;92.10;;;;;;4939667;29;20183;-79
2021/09/25 13:58:21;;;;;;;2.67;1.63;;;23.60;91.80;;;;;;4939805;29;20176;-80
2021/09/25 14:00:48;;;;;;;5.30;1.47;;;23.70;93.10;;;;;;4939399;29;20188;-79
2021/09/25 14:03:13;;;;;;;2.73;1.60;;;23.60;89.40;;;;;;4939532;29;20203;-79
2021/09/25 14:05:39;;;;;;;1.57;1.47;;;23.30;91.30;;;;;;4939453;29;20420;-80
2021/09/25 14:08:06;;;;;;;3.93;1.80;;;23.40;90.90;;;;;;4939599;29;20207;-80
2021/09/25 14:10:37;;;;;;;2.03;1.53;;;23.80;89.90;;;;;;4939121;29;20178;-79
2021/09/25 14:13:04;;;;;;;4.40;1.70;;;23.50;91.10;;;;;;4938102;29;20459;-79
2021/09/25 14:15:29;;;;;;;3.63;1.83;;;23.70;91.20;;;;;;4942879;29;21006;-79
2021/09/25 14:17:55;;;;;;;1.67;1.57;;;23.60;90.00;;;;;;4943533;29;20464;-80
2021/09/25 14:20:21;;;;;;;3.90;2.80;;;23.40;92.40;;;;;;4941205;29;20176;-79
2021/09/25 14:22:46;;;;;;;3.93;1.87;;;23.60;91.80;;;;;;4942918;29;20283;-79
2021/09/25 14:25:12;;;;;;;5.63;1.67;;;24.00;91.40;;;;;;4943357;29;20176;-79
2021/09/25 14:27:37;;;;;;;3.10;1.80;;;24.20;89.40;;;;;;4957535;29;20209;-79
2021/09/25 14:30:04;;;;;;;6.07;2.50;;;24.50;86.00;;;;;;4961955;29;20262;-79
2021/09/25 14:32:29;;;;;;;4.20;1.70;;;24.30;87.90;;;;;;4961496;28;20198;-79
2021/09/25 14:34:55;;;;;;;2.13;1.90;;;24.10;87.50;;;;;;4960973;29;20442;-80
2021/09/25 14:37:21;;;;;;;2.17;1.93;;;24.10;87.50;;;;;;4963264;28;20175;-80
2021/09/25 14:39:48;;;;;;;2.13;1.90;;;24.30;89.10;;;;;;4963043;28;20175;-80
2021/09/25 14:42:14;;;;;;;1.80;1.70;;;24.30;89.30;;;;;;4962638;28;20654;-80
2021/09/25 14:44:40;;;;;;;6.77;1.60;;;24.10;88.20;;;;;;4963215;28;20469;-81
2021/09/25 14:47:06;;;;;;;2.57;1.90;;;24.20;90.20;;;;;;4961883;29;20203;-80
2021/09/25 14:49:31;;;;;;;1.87;1.57;;;24.00;90.30;;;;;;4962685;29;20197;-80
2021/09/25 14:51:57;;;;;;;4.00;2.40;;;23.60;89.80;;;;;;4962746;28;20195;-80
2021/09/25 14:54:23;;;;;;;2.70;2.10;;;23.40;91.20;;;;;;4963408;28;20230;-78
2021/09/25 14:56:49;;;;;;;1.77;1.57;;;23.30;92.40;;;;;;4962998;29;20182;-80
2021/09/25 14:59:15;;;;;;;1.87;1.77;;;23.30;92.70;;;;;;4961677;29;20163;-80
2021/09/25 15:01:41;;;;;;;7.30;2.07;;;23.50;92.30;;;;;;4960300;28;20209;-80
2021/09/25 15:04:07;;;;;;;2.60;1.70;;;23.50;92.00;;;;;;4962618;29;20778;-80
2021/09/25 15:06:32;;;;;;;3.60;1.83;;;23.30;90.90;;;;;;4962073;28;20201;-80
2021/09/25 15:08:58;;;;;;;4.73;2.30;;;23.50;92.00;;;;;;4963134;29;20189;-79
2021/09/25 15:11:24;;;;;;;2.20;1.73;;;23.60;91.10;;;;;;4962566;28;20291;-80
2021/09/25 15:13:49;;;;;;;5.93;1.87;;;23.60;91.40;;;;;;4963580;29;20189;-81
2021/09/25 15:16:15;;;;;;;2.13;1.90;;;23.40;91.70;;;;;;4961553;29;20170;-80
2021/09/25 15:18:40;;;;;;;2.27;1.70;;;23.00;91.50;;;;;;4962377;28;20610;-80
2021/09/25 15:21:06;;;;;;;3.53;1.60;;;22.50;93.20;;;;;;4962502;28;20265;-79
2021/09/25 15:23:33;;;;;;;5.93;2.07;;;22.20;94.40;;;;;;4962812;29;20658;-80
2021/09/25 15:25:58;;;;;;;2.17;2.00;;;22.00;96.30;;;;;;4960558;28;20610;-80
2021/09/25 15:28:24;;;;;;;4.70;1.90;;;21.90;96.30;;;;;;4943432;29;21050;-79
2021/09/25 15:30:49;;;;;;;1.60;1.50;;;22.00;96.30;;;;;;4943698;29;20199;-80
2021/09/25 15:33:15;;;;;;;3.30;2.00;;;22.00;96.30;;;;;;4942783;29;20270;-81
2021/09/25 15:35:41;;;;;;;3.00;1.40;;;21.90;96.30;;;;;;4942040;28;20251;-80
2021/09/25 15:38:07;;;;;;;2.30;1.70;;;21.70;96.30;;;;;;4942520;28;20187;-80
2021/09/25 15:40:33;;;;;;;1.93;1.73;;;21.50;96.30;;;;;;4943193;29;20784;-79
2021/09/25 15:42:59;;;;;;;2.27;2.07;;;21.40;96.30;;;;;;4942042;29;20246;-79
2021/09/25 15:45:25;;;;;;;4.13;1.90;;;21.40;96.30;;;;;;4942437;29;20195;-79
2021/09/25 15:47:50;;;;;;;4.53;2.20;;;21.50;96.30;;;;;;4941792;29;20463;-80
2021/09/25 15:50:16;;;;;;;2.13;1.83;;;21.60;96.30;;;;;;4942914;29;20176;-80
2021/09/25 15:52:42;;;;;;;2.07;1.87;;;21.60;96.30;;;;;;4942551;29;20199;-80
2021/09/25 15:55:08;;;;;;;1.90;1.80;;;21.40;96.30;;;;;;4942954;29;20188;-80
2021/09/25 15:57:33;;;;;;;2.00;1.80;;;21.30;96.30;;;;;;4941272;29;20502;-80
2021/09/25 15:59:59;;;;;;;2.37;1.73;;;21.30;96.30;;;;;;4943446;29;20908;-79
2021/09/25 16:02:24;;;;;;;3.37;1.33;;;21.20;96.30;;;;;;4942196;29;20203;-80
2021/09/25 16:04:50;;;;;;;13.33;2.00;;;21.20;96.30;;;;;;4942463;29;20178;-81
2021/09/25 16:07:16;;;;;;;3.00;2.20;;;21.00;96.30;;;;;;4942585;29;20231;-79
2021/09/25 16:09:41;;;;;;;2.23;1.80;;;20.70;96.30;;;;;;4941006;28;20172;-80
2021/09/25 16:12:07;;;;;;;4.93;2.37;;;20.40;96.30;;;;;;4941641;29;20222;-80
2021/09/25 16:14:33;;;;;;;4.90;2.00;;;20.00;96.30;;;;;;4941217;29;20183;-81
2021/09/25 16:16:58;;;;;;;1.80;1.70;;;19.70;96.30;;;;;;4942279;29;20179;-80
2021/09/25 16:19:24;;;;;;;2.03;1.57;;;19.50;96.30;;;;;;4943147;29;20179;-80
2021/09/25 16:21:51;;;;;;;3.33;1.90;;;19.00;96.30;;;;;;4940167;29;20215;-78
2021/09/25 16:24:17;;;;;;;3.60;1.97;;;18.70;96.30;;;;;;4935983;29;20920;-79
2021/09/25 16:26:43;;;;;;;4.60;1.90;;;18.50;96.30;;;;;;4934334;29;20459;-77
2021/09/25 16:29:11;;;;;;;11.07;2.93;;;18.20;96.30;;;;;;4935901;29;20483;-77
2021/09/25 16:31:37;;;;;;;6.00;2.00;;;18.20;96.30;;;;;;4934358;29;20235;-78
2021/09/25 16:34:03;;;;;;;3.57;2.17;;;17.90;96.30;;;;;;4935826;29;20435;-77
2021/09/25 16:36:29;;;;;;;2.63;2.20;;;17.70;96.30;;;;;;4935794;29;20908;-77
2021/09/25 16:38:54;;;;;;;2.00;1.90;;;17.50;96.30;;;;;;4935814;29;20492;-79
2021/09/25 16:41:20;;;;;;;2.90;2.20;;;17.30;96.30;;;;;;4935250;29;20207;-77
2021/09/25 16:43:45;;;;;;;2.60;2.00;;;17.00;96.30;;;;;;4935967;29;20579;-77
2021/09/25 16:46:11;;;;;;;3.33;1.93;;;16.80;96.30;;;;;;4935930;29;20191;-78
2021/09/25 16:48:37;;;;;;;2.20;2.00;;;16.70;96.30;;;;;;4935742;29;20572;-77
2021/09/25 16:51:03;;;;;;;7.83;2.13;;;16.50;96.30;;;;;;4935195;29;20439;-80